createdAt,value
2023-03-12T00:00:28.870Z,98439.25
2023-03-12T00:02:57.265Z,98430.81
2023-03-12T00:05:26.990Z,98435.41
2023-03-12T00:07:59.798Z,98429.25
2023-03-12T00:10:28.262Z,98441.16
2023-03-12T00:12:56.442Z,98443.84
2023-03-12T00:15:24.826Z,98430.81
2023-03-12T00:17:54.068Z,98443.09
2023-03-12T00:20:23.570Z,98441.16
2023-03-12T00:22:53.232Z,98442.31
2023-03-12T00:25:22.291Z,98448.38
2023-03-12T00:27:50.557Z,98448.72
2023-03-12T00:30:18.909Z,98440.91
2023-03-12T00:32:47.071Z,98439.50
2023-03-12T00:35:15.445Z,98432.78
2023-03-12T00:37:43.618Z,98448.06
2023-03-12T00:40:14.513Z,98446.03
2023-03-12T00:42:42.902Z,98441.69
2023-03-12T00:45:14.286Z,98442.69
2023-03-12T00:47:42.371Z,98444.09
2023-03-12T00:50:12.069Z,98442.47
2023-03-12T00:52:40.298Z,98437.72
2023-03-12T00:55:09.056Z,98433.38
2023-03-12T00:57:38.579Z,98450.09
2023-03-12T01:00:10.645Z,98439.59
2023-03-12T01:02:38.957Z,98442.56
2023-03-12T01:05:08.729Z,98437.44
2023-03-12T01:07:37.388Z,98443.19
2023-03-12T01:10:06.772Z,98443.53
2023-03-12T01:12:34.811Z,98450.13
2023-03-12T01:15:05.136Z,98448.22
2023-03-12T01:17:33.512Z,98453.97
2023-03-12T01:20:01.984Z,98452.81
2023-03-12T01:22:30.178Z,98446.28
2023-03-12T01:24:58.442Z,98451.25
2023-03-12T01:27:26.566Z,98454.72
2023-03-12T01:29:54.793Z,98464.63
2023-03-12T01:32:25.483Z,98455.69
2023-03-12T01:34:53.629Z,98473.97
2023-03-12T01:37:21.898Z,98480.44
2023-03-12T01:39:50.142Z,98484.97
2023-03-12T01:42:18.299Z,98476.41
2023-03-12T01:44:51.644Z,98488.28
2023-03-12T01:47:19.855Z,98506.00
2023-03-12T01:49:51.137Z,98507.09
2023-03-12T01:52:23.288Z,98517.78
2023-03-12T01:54:55.838Z,98529.94
2023-03-12T01:57:27.926Z,98532.13
2023-03-12T02:00:01.377Z,98536.72
2023-03-12T02:02:30.808Z,98542.09
2023-03-12T02:05:08.249Z,98547.59
2023-03-12T02:07:36.848Z,98549.34
2023-03-12T02:10:06.733Z,98550.03
2023-03-12T02:12:34.938Z,98556.50
2023-03-12T02:15:03.221Z,98551.50
2023-03-12T02:17:32.634Z,98556.09
2023-03-12T02:20:12.055Z,98577.94
2023-03-12T02:22:43.910Z,98581.22
2023-03-12T02:25:30.929Z,98584.94
2023-03-12T02:28:01.394Z,98595.69
2023-03-12T02:30:31.486Z,98597.63
2023-03-12T02:33:02.877Z,98589.47
2023-03-12T02:35:31.201Z,98609.75
2023-03-12T02:37:59.526Z,98611.22
2023-03-12T02:40:36.726Z,98620.41
2023-03-12T02:43:09.910Z,98618.28
2023-03-12T02:45:39.444Z,98612.47
2023-03-12T02:48:10.445Z,98608.88
2023-03-12T02:50:38.573Z,98617.19
2023-03-12T02:53:06.735Z,98612.03
2023-03-12T02:55:36.314Z,98616.31
2023-03-12T02:58:04.503Z,98609.25
2023-03-12T03:00:33.057Z,98626.41
2023-03-12T03:03:01.645Z,98636.69
2023-03-12T03:05:29.794Z,98634.69
2023-03-12T03:07:57.905Z,98636.91
2023-03-12T03:10:26.041Z,98632.66
2023-03-12T03:12:55.565Z,98637.59
2023-03-12T03:15:23.748Z,98646.75
2023-03-12T03:17:51.880Z,98649.00
2023-03-12T03:20:21.403Z,98662.44
2023-03-12T03:22:49.546Z,98664.78
2023-03-12T03:25:18.821Z,98657.50
2023-03-12T03:27:47.452Z,98660.84
2023-03-12T03:30:17.962Z,98670.50
2023-03-12T03:32:46.164Z,98673.50
2023-03-12T03:35:14.599Z,98679.34
2023-03-12T03:37:42.741Z,98685.03
2023-03-12T03:40:12.521Z,98699.59
2023-03-12T03:42:41.580Z,98703.41
2023-03-12T03:45:10.910Z,98695.34
2023-03-12T03:47:40.456Z,98704.53
2023-03-12T03:50:09.224Z,98717.94
2023-03-12T03:52:37.345Z,98710.91
2023-03-12T03:55:06.686Z,98720.22
2023-03-12T03:57:35.030Z,98713.34
2023-03-12T04:00:08.997Z,98712.94
2023-03-12T04:02:37.353Z,98721.75
2023-03-12T04:05:07.424Z,98717.63
2023-03-12T04:07:35.633Z,98724.25
2023-03-12T04:10:04.068Z,98729.63
2023-03-12T04:12:32.166Z,98733.41
2023-03-12T04:15:00.300Z,98736.44
2023-03-12T04:17:29.338Z,98740.56
2023-03-12T04:19:57.361Z,98739.34
2023-03-12T04:22:27.229Z,98742.69
2023-03-12T04:24:55.781Z,98740.13
2023-03-12T04:27:24.704Z,98733.84
2023-03-12T04:29:52.799Z,98741.78
2023-03-12T04:32:21.592Z,98750.50
2023-03-12T04:34:49.742Z,98745.47
2023-03-12T04:37:18.169Z,98748.16
2023-03-12T04:39:47.842Z,98748.81
2023-03-12T04:42:16.025Z,98753.38
2023-03-12T04:44:44.570Z,98760.66
2023-03-12T04:47:12.800Z,98766.03
2023-03-12T04:49:41.041Z,98768.72
2023-03-12T04:52:09.184Z,98775.00
2023-03-12T04:54:37.796Z,98774.56
2023-03-12T04:57:07.569Z,98779.59
2023-03-12T04:59:35.790Z,98785.75
2023-03-12T05:02:03.807Z,98777.25
2023-03-12T05:04:33.808Z,98789.22
2023-03-12T05:07:02.032Z,98789.03
2023-03-12T05:09:30.268Z,98794.97
2023-03-12T05:11:58.409Z,98791.63
2023-03-12T05:14:28.152Z,98810.88
2023-03-12T05:16:56.441Z,98816.25
2023-03-12T05:19:24.856Z,98825.31
2023-03-12T05:21:52.962Z,98832.88
2023-03-12T05:24:22.152Z,98832.41
2023-03-12T05:26:50.687Z,98842.16
2023-03-12T05:29:19.485Z,98838.03
2023-03-12T05:31:50.273Z,98840.47
2023-03-12T05:34:18.502Z,98847.00
2023-03-12T05:36:46.716Z,98845.06
2023-03-12T05:39:14.898Z,98836.13
2023-03-12T05:41:42.948Z,98839.28
2023-03-12T05:44:12.647Z,98841.63
2023-03-12T05:46:40.848Z,98848.13
2023-03-12T05:49:10.885Z,98857.91
2023-03-12T05:51:39.195Z,98876.72
2023-03-12T05:54:07.354Z,98867.06
2023-03-12T05:56:37.555Z,98875.16
2023-03-12T05:59:05.850Z,98878.63
2023-03-12T06:01:34.347Z,98881.34
2023-03-12T06:04:02.524Z,98890.06
2023-03-12T06:06:33.232Z,98885.16
2023-03-12T06:09:01.508Z,98899.53
2023-03-12T06:11:29.693Z,98900.63
2023-03-12T06:13:58.226Z,98912.41
2023-03-12T06:16:28.405Z,98913.53
2023-03-12T06:18:57.795Z,98929.81
2023-03-12T06:21:28.659Z,98932.84
2023-03-12T06:23:58.455Z,98926.69
2023-03-12T06:26:27.132Z,98932.50
2023-03-12T06:28:55.713Z,98932.53
2023-03-12T06:31:25.139Z,98940.13
2023-03-12T06:33:53.886Z,98940.03
2023-03-12T06:36:23.100Z,98940.13
2023-03-12T06:38:51.398Z,98954.84
2023-03-12T06:41:21.602Z,98943.88
2023-03-12T06:43:50.362Z,98953.09
2023-03-12T06:46:21.989Z,98963.19
2023-03-12T06:48:50.724Z,98968.34
2023-03-12T06:51:19.445Z,98962.84
2023-03-12T06:53:47.870Z,98978.56
2023-03-12T06:56:16.451Z,98957.44
2023-03-12T06:58:46.367Z,98978.75
2023-03-12T07:01:14.534Z,98994.38
2023-03-12T07:03:42.695Z,98994.59
2023-03-12T07:06:16.113Z,98991.66
2023-03-12T07:08:44.611Z,98998.75
2023-03-12T07:11:13.673Z,99006.69
2023-03-12T07:13:42.262Z,99007.25
2023-03-12T07:16:12.668Z,98999.84
2023-03-12T07:18:40.993Z,99004.19
2023-03-12T07:21:09.201Z,98990.72
2023-03-12T07:23:37.459Z,99023.28
2023-03-12T07:26:06.969Z,99004.44
2023-03-12T07:28:36.433Z,98998.34
2023-03-12T07:31:07.392Z,98999.44
2023-03-12T07:33:38.406Z,98994.28
2023-03-12T07:36:09.799Z,98993.44
2023-03-12T07:38:38.918Z,98981.28
2023-03-12T07:41:07.683Z,98971.41
2023-03-12T07:43:35.977Z,98975.41
2023-03-12T07:46:04.595Z,98975.03
2023-03-12T07:48:32.874Z,98964.69
2023-03-12T07:51:02.541Z,98957.84
2023-03-12T07:53:30.805Z,98973.72
2023-03-12T07:55:59.681Z,98982.06
2023-03-12T07:58:28.080Z,98955.97
2023-03-12T08:00:57.329Z,98986.00
2023-03-12T08:03:26.204Z,98990.34
2023-03-12T08:06:00.549Z,99000.97
2023-03-12T08:08:31.571Z,99018.16
2023-03-12T08:11:00.513Z,99009.09
2023-03-12T08:13:29.193Z,99019.50
2023-03-12T08:15:58.970Z,99015.84
2023-03-12T08:18:28.133Z,99028.25
2023-03-12T08:20:57.037Z,99025.38
2023-03-12T08:23:26.670Z,99019.41
2023-03-12T08:25:56.738Z,99018.38
2023-03-12T08:28:26.452Z,99018.97
2023-03-12T08:30:57.792Z,99001.47
2023-03-12T08:33:25.985Z,98992.13
2023-03-12T08:35:54.431Z,98980.88
2023-03-12T08:38:22.991Z,98970.63
2023-03-12T08:40:58.446Z,98976.44
2023-03-12T08:43:29.199Z,98960.19
2023-03-12T08:45:58.277Z,98971.31
2023-03-12T08:48:27.253Z,98972.03
2023-03-12T08:50:56.991Z,98973.28
2023-03-12T08:53:26.054Z,98998.31
2023-03-12T08:55:55.296Z,99003.91
2023-03-12T08:58:26.313Z,99003.09
2023-03-12T09:00:55.872Z,99003.81
2023-03-12T09:03:25.089Z,99012.34
2023-03-12T09:06:04.194Z,99020.66
2023-03-12T09:08:34.135Z,99017.38
2023-03-12T09:11:03.108Z,99023.53
2023-03-12T09:13:52.045Z,99015.22
2023-03-12T09:16:21.474Z,99002.06
2023-03-12T09:18:50.729Z,99009.63
2023-03-12T09:21:19.124Z,99013.25
2023-03-12T09:23:47.401Z,98996.47
2023-03-12T09:26:15.895Z,98996.91
2023-03-12T09:28:45.693Z,98999.16
2023-03-12T09:31:14.292Z,98986.91
2023-03-12T09:33:42.591Z,98964.91
2023-03-12T09:36:10.975Z,98985.41
2023-03-12T09:38:39.367Z,98986.41
2023-03-12T09:41:16.625Z,99002.16
2023-03-12T09:43:51.847Z,99032.34
2023-03-12T09:46:27.178Z,99017.28
2023-03-12T09:48:59.884Z,99035.56
2023-03-12T09:51:34.832Z,99043.44
2023-03-12T09:54:07.483Z,99033.59
2023-03-12T09:56:36.182Z,99056.06
2023-03-12T09:59:13.312Z,99040.78
2023-03-12T10:01:49.286Z,99027.16
2023-03-12T10:04:56.307Z,99037.47
2023-03-12T10:07:31.411Z,99023.78
2023-03-12T10:10:17.669Z,99042.72
2023-03-12T10:13:04.153Z,99045.69
2023-03-12T10:15:43.777Z,99050.50
2023-03-12T10:18:22.708Z,99034.31
2023-03-12T10:21:04.585Z,99040.31
2023-03-12T10:23:46.702Z,99031.22
2023-03-12T10:26:17.636Z,99065.75
2023-03-12T10:28:50.418Z,99041.69
2023-03-12T10:31:27.330Z,99044.31
2023-03-12T10:33:58.850Z,99046.41
2023-03-12T10:36:30.776Z,99040.31
2023-03-12T10:38:58.889Z,99059.88
2023-03-12T10:41:34.641Z,99063.19
2023-03-12T10:44:08.881Z,99063.41
2023-03-12T10:46:52.114Z,99069.41
2023-03-12T10:49:32.926Z,99058.78
2023-03-12T10:52:05.280Z,99066.63
2023-03-12T10:54:36.393Z,99054.09
2023-03-12T10:57:05.806Z,99037.06
2023-03-12T10:59:36.660Z,99030.34
2023-03-12T11:02:33.353Z,99045.78
2023-03-12T11:05:04.897Z,99041.00
2023-03-12T11:07:34.357Z,99053.41
2023-03-12T11:10:19.312Z,99051.41
2023-03-12T11:13:00.886Z,99039.53
2023-03-12T11:15:32.331Z,99034.84
2023-03-12T11:18:22.560Z,99037.38
2023-03-12T11:20:53.128Z,99035.72
2023-03-12T11:23:25.324Z,99025.97
2023-03-12T11:25:55.797Z,99042.41
2023-03-12T11:28:29.729Z,99041.97
2023-03-12T11:30:59.639Z,99036.50
2023-03-12T11:33:29.950Z,99031.09
2023-03-12T11:36:09.917Z,99029.06
2023-03-12T11:38:43.713Z,99045.47
2023-03-12T11:41:28.018Z,99032.69
2023-03-12T11:44:16.170Z,99038.97
2023-03-12T11:46:57.917Z,99041.06
2023-03-12T11:49:41.654Z,99011.09
2023-03-12T11:52:18.091Z,99020.59
2023-03-12T11:55:22.524Z,99019.88
2023-03-12T11:58:03.689Z,99020.78
2023-03-12T12:00:40.050Z,99023.25
2023-03-12T12:03:36.281Z,99038.22
2023-03-12T12:06:10.100Z,99024.47
2023-03-12T12:08:56.213Z,99021.09
2023-03-12T12:11:35.888Z,99018.38
2023-03-12T12:14:17.749Z,99026.69
2023-03-12T12:16:55.448Z,99029.34
2023-03-12T12:19:41.287Z,99042.22
2023-03-12T12:22:29.614Z,99025.97
2023-03-12T12:25:22.934Z,99029.63
2023-03-12T12:28:04.867Z,99031.19
2023-03-12T12:30:49.938Z,99024.72
2023-03-12T12:33:31.295Z,99023.47
2023-03-12T12:36:00.256Z,99022.81
2023-03-12T12:38:34.600Z,99026.78
2023-03-12T12:41:09.393Z,99020.22
2023-03-12T12:43:41.413Z,99025.84
2023-03-12T12:46:14.742Z,99023.94
2023-03-12T12:48:47.946Z,99026.72
2023-03-12T12:51:21.530Z,99035.88
2023-03-12T12:53:58.745Z,99044.66
2023-03-12T12:56:33.779Z,99048.88
2023-03-12T12:59:32.941Z,99036.94
2023-03-12T13:02:03.655Z,99026.19
2023-03-12T13:04:36.718Z,99028.28
2023-03-12T13:07:27.936Z,99034.00
2023-03-12T13:10:00.117Z,99044.56
2023-03-12T13:12:33.376Z,99032.13
2023-03-12T13:15:02.948Z,99035.16
2023-03-12T13:17:34.942Z,99041.97
2023-03-12T13:20:17.424Z,99045.03
2023-03-12T13:23:26.283Z,99035.41
2023-03-12T13:26:05.213Z,99034.94
2023-03-12T13:28:42.567Z,99036.16
2023-03-12T13:31:38.013Z,99045.06
2023-03-12T13:34:46.456Z,99051.81
2023-03-12T13:37:30.432Z,99053.41
2023-03-12T13:40:08.548Z,99044.78
2023-03-12T13:42:42.041Z,99047.31
2023-03-12T13:45:28.408Z,99054.75
2023-03-12T13:48:01.772Z,99064.72
2023-03-12T13:50:32.670Z,99058.16
2023-03-12T13:53:07.903Z,99063.59
2023-03-12T13:55:37.861Z,99059.66
2023-03-12T13:58:11.202Z,99071.72
2023-03-12T14:00:42.780Z,99067.38
2023-03-12T14:03:17.874Z,99066.47
2023-03-12T14:05:53.703Z,99077.31
2023-03-12T14:08:49.552Z,99066.94
2023-03-12T14:11:34.015Z,99069.94
2023-03-12T14:14:50.095Z,99059.53
2023-03-12T14:17:22.081Z,99063.38
2023-03-12T14:19:53.933Z,99065.72
2023-03-12T14:22:24.658Z,99064.69
2023-03-12T14:24:56.822Z,99068.31
2023-03-12T14:27:30.320Z,99072.50
2023-03-12T14:30:09.172Z,99079.72
2023-03-12T14:32:38.660Z,99077.81
2023-03-12T14:35:22.000Z,99079.03
2023-03-12T14:37:58.826Z,99082.75
2023-03-12T14:40:38.913Z,99082.28
2023-03-12T14:43:25.896Z,99081.31
2023-03-12T14:45:58.781Z,99081.28
2023-03-12T14:48:31.267Z,99092.91
2023-03-12T14:51:00.999Z,99088.38
2023-03-12T14:53:31.454Z,99091.50
2023-03-12T14:56:04.861Z,99092.16
2023-03-12T14:58:34.036Z,99094.09
2023-03-12T15:01:07.761Z,99092.16
2023-03-12T15:03:43.146Z,99099.00
2023-03-12T15:06:21.238Z,99105.94
2023-03-12T15:08:49.939Z,99110.47
2023-03-12T15:11:23.447Z,99111.63
2023-03-12T15:13:53.696Z,99117.41
2023-03-12T15:16:24.820Z,99116.63
2023-03-12T15:18:53.596Z,99120.75
2023-03-12T15:21:23.517Z,99124.50
2023-03-12T15:23:52.781Z,99131.59
2023-03-12T15:26:30.144Z,99133.81
2023-03-12T15:29:00.124Z,99136.78
2023-03-12T15:31:42.774Z,99141.41
2023-03-12T15:34:13.251Z,99141.47
2023-03-12T15:36:48.432Z,99152.41
2023-03-12T15:39:27.252Z,99151.59
2023-03-12T15:41:57.413Z,99156.13
2023-03-12T15:44:28.119Z,99158.75
2023-03-12T15:47:04.800Z,99158.75
2023-03-12T15:49:36.388Z,99160.97
2023-03-12T15:52:08.843Z,99170.88
2023-03-12T15:54:40.605Z,99170.38
2023-03-12T15:57:26.045Z,99183.50
2023-03-12T16:00:18.952Z,99190.63
2023-03-12T16:02:54.682Z,99200.25
2023-03-12T16:05:25.039Z,99204.09
2023-03-12T16:07:53.540Z,99212.09
2023-03-12T16:10:24.189Z,99221.78
2023-03-12T16:12:57.665Z,99228.88
2023-03-12T16:15:31.034Z,99234.75
2023-03-12T16:18:01.078Z,99241.66
2023-03-12T16:20:30.039Z,99244.56
2023-03-12T16:22:58.698Z,99253.13
2023-03-12T16:25:28.788Z,99261.97
2023-03-12T16:27:59.775Z,99269.13
2023-03-12T16:30:30.665Z,99260.75
2023-03-12T16:33:01.740Z,99270.53
2023-03-12T16:35:31.494Z,99283.00
2023-03-12T16:38:01.449Z,99288.50
2023-03-12T16:40:33.834Z,99283.78
2023-03-12T16:43:05.928Z,99292.75
2023-03-12T16:45:37.132Z,99299.34
2023-03-12T16:48:07.620Z,99304.56
2023-03-12T16:50:35.857Z,99324.41
2023-03-12T16:53:05.770Z,99317.00
2023-03-12T16:55:45.689Z,99335.00
2023-03-12T16:58:17.204Z,99347.41
2023-03-12T17:00:46.428Z,99354.06
2023-03-12T17:03:22.961Z,99363.63
2023-03-12T17:05:51.196Z,99372.84
2023-03-12T17:08:19.903Z,99371.88
2023-03-12T17:10:48.269Z,99373.78
2023-03-12T17:13:23.877Z,99377.34
2023-03-12T17:15:53.289Z,99381.38
2023-03-12T17:18:23.198Z,99388.00
2023-03-12T17:20:52.201Z,99391.84
2023-03-12T17:23:23.349Z,99409.22
2023-03-12T17:25:51.641Z,99408.84
2023-03-12T17:28:19.720Z,99422.59
2023-03-12T17:30:48.769Z,99433.41
2023-03-12T17:33:18.607Z,99434.31
2023-03-12T17:35:48.303Z,99442.34
2023-03-12T17:38:16.579Z,99457.88
2023-03-12T17:40:45.839Z,99455.72
2023-03-12T17:43:14.069Z,99458.66
2023-03-12T17:45:42.225Z,99463.09
2023-03-12T17:48:10.589Z,99463.75
2023-03-12T17:50:53.670Z,99476.91
2023-03-12T17:53:24.368Z,99480.72
2023-03-12T17:55:53.355Z,99487.81
2023-03-12T17:58:22.932Z,99485.63
2023-03-12T18:00:51.034Z,99487.88
2023-03-12T18:03:19.220Z,99504.81
2023-03-12T18:05:51.169Z,99507.94
2023-03-12T18:08:19.561Z,99503.97
2023-03-12T18:10:50.299Z,99500.31
2023-03-12T18:13:18.673Z,99508.41
2023-03-12T18:15:53.563Z,99510.53
2023-03-12T18:18:22.498Z,99510.53
2023-03-12T18:20:51.345Z,99522.00
2023-03-12T18:23:19.854Z,99524.91
2023-03-12T18:25:49.976Z,99539.84
2023-03-12T18:28:18.219Z,99536.16
2023-03-12T18:30:47.436Z,99542.31
2023-03-12T18:33:15.841Z,99549.34
2023-03-12T18:35:45.250Z,99558.78
2023-03-12T18:38:13.362Z,99554.75
2023-03-12T18:40:41.515Z,99558.50
2023-03-12T18:43:11.933Z,99562.97
2023-03-12T18:45:44.187Z,99565.53
2023-03-12T18:48:12.404Z,99563.72
2023-03-12T18:50:40.721Z,99578.81
2023-03-12T18:53:08.803Z,99574.59
2023-03-12T18:55:36.967Z,99581.59
2023-03-12T18:58:05.170Z,99568.78
2023-03-12T19:00:34.985Z,99579.13
2023-03-12T19:03:03.100Z,99578.28
2023-03-12T19:05:32.561Z,99579.59
2023-03-12T19:08:00.721Z,99590.44
2023-03-12T19:10:29.040Z,99589.13
2023-03-12T19:12:58.973Z,99587.09
2023-03-12T19:15:27.252Z,99591.66
2023-03-12T19:17:57.239Z,99603.09
2023-03-12T19:20:25.749Z,99599.97
2023-03-12T19:22:53.985Z,99606.16
2023-03-12T19:25:22.169Z,99603.63
2023-03-12T19:27:50.182Z,99620.41
2023-03-12T19:30:18.749Z,99620.28
2023-03-12T19:32:46.995Z,99627.59
2023-03-12T19:35:17.344Z,99619.25
2023-03-12T19:37:45.545Z,99623.81
2023-03-12T19:40:14.587Z,99618.09
2023-03-12T19:42:42.857Z,99629.56
2023-03-12T19:45:14.350Z,99631.72
2023-03-12T19:47:42.925Z,99633.75
2023-03-12T19:50:12.963Z,99641.50
2023-03-12T19:52:43.004Z,99639.41
2023-03-12T19:55:12.108Z,99646.59
2023-03-12T19:57:40.885Z,99649.16
2023-03-12T20:00:14.340Z,99644.84
2023-03-12T20:02:42.879Z,99649.97
2023-03-12T20:05:11.624Z,99652.84
2023-03-12T20:07:40.422Z,99655.09
2023-03-12T20:10:12.945Z,99646.41
2023-03-12T20:12:41.141Z,99654.19
2023-03-12T20:15:10.010Z,99651.19
2023-03-12T20:17:38.573Z,99669.28
2023-03-12T20:20:09.309Z,99670.09
2023-03-12T20:22:37.404Z,99681.66
2023-03-12T20:25:06.861Z,99684.84
2023-03-12T20:27:36.754Z,99683.88
2023-03-12T20:30:05.771Z,99688.50
2023-03-12T20:32:34.104Z,99681.84
2023-03-12T20:35:02.446Z,99690.88
2023-03-12T20:37:33.600Z,99699.09
2023-03-12T20:40:02.240Z,99696.56
2023-03-12T20:42:30.891Z,99701.66
2023-03-12T20:45:01.141Z,99706.66
2023-03-12T20:47:31.406Z,99712.53
2023-03-12T20:50:01.393Z,99714.59
2023-03-12T20:52:30.882Z,99707.78
2023-03-12T20:54:59.934Z,99713.97
2023-03-12T20:57:30.475Z,99721.69
2023-03-12T21:00:02.477Z,99720.59
2023-03-12T21:02:31.122Z,99728.69
2023-03-12T21:05:01.119Z,99733.72
2023-03-12T21:07:29.310Z,99728.34
2023-03-12T21:09:58.154Z,99735.75
2023-03-12T21:12:26.652Z,99729.91
2023-03-12T21:14:54.933Z,99734.63
2023-03-12T21:17:24.801Z,99735.88
2023-03-12T21:19:54.154Z,99737.63
2023-03-12T21:22:22.509Z,99743.63
2023-03-12T21:24:51.664Z,99737.91
2023-03-12T21:27:20.140Z,99742.00
2023-03-12T21:29:48.552Z,99742.34
2023-03-12T21:32:17.257Z,99742.78
2023-03-12T21:34:47.626Z,99738.69
2023-03-12T21:37:16.108Z,99751.22
2023-03-12T21:39:44.922Z,99743.63
2023-03-12T21:42:14.147Z,99747.75
2023-03-12T21:44:42.531Z,99749.00
2023-03-12T21:47:10.763Z,99748.38
2023-03-12T21:49:39.352Z,99751.59
2023-03-12T21:52:08.897Z,99752.84
2023-03-12T21:54:38.002Z,99748.28
2023-03-12T21:57:06.767Z,99746.50
2023-03-12T21:59:34.845Z,99752.16
2023-03-12T22:02:03.009Z,99748.50
2023-03-12T22:04:32.257Z,99750.97
2023-03-12T22:07:00.330Z,99756.75
2023-03-12T22:09:30.744Z,99762.72
2023-03-12T22:11:58.996Z,99768.84
2023-03-12T22:14:28.270Z,99762.97
2023-03-12T22:16:56.741Z,99767.84
2023-03-12T22:19:24.776Z,99771.16
2023-03-12T22:21:53.101Z,99768.25
2023-03-12T22:24:21.190Z,99766.88
2023-03-12T22:26:50.737Z,99771.56
2023-03-12T22:29:18.810Z,99768.22
2023-03-12T22:31:46.926Z,99776.09
2023-03-12T22:34:15.130Z,99785.53
2023-03-12T22:36:43.737Z,99785.44
2023-03-12T22:39:11.959Z,99786.22
2023-03-12T22:41:41.115Z,99792.53
2023-03-12T22:44:11.011Z,99791.03
2023-03-12T22:46:39.848Z,99798.09
2023-03-12T22:49:07.984Z,99793.13
2023-03-12T22:51:36.455Z,99798.66
2023-03-12T22:54:04.625Z,99811.03
2023-03-12T22:56:32.802Z,99816.13
2023-03-12T22:59:00.912Z,99806.28
2023-03-12T23:01:30.476Z,99817.69
2023-03-12T23:03:59.901Z,99814.94
2023-03-12T23:06:30.140Z,99823.69
2023-03-12T23:08:59.012Z,99821.72
2023-03-12T23:11:29.832Z,99818.78
2023-03-12T23:13:58.100Z,99825.91
2023-03-12T23:16:27.746Z,99824.53
2023-03-12T23:18:57.456Z,99824.16
2023-03-12T23:21:26.347Z,99828.50
2023-03-12T23:23:54.614Z,99832.56
2023-03-12T23:26:24.603Z,99835.56
2023-03-12T23:28:53.575Z,99833.16
2023-03-12T23:31:22.863Z,99841.81
2023-03-12T23:33:51.065Z,99840.00
2023-03-12T23:36:22.621Z,99840.59
2023-03-12T23:38:51.510Z,99844.88
2023-03-12T23:41:21.619Z,99851.81
2023-03-12T23:43:49.799Z,99850.44
2023-03-12T23:46:18.578Z,99850.34
2023-03-12T23:48:47.393Z,99847.34
2023-03-12T23:51:17.486Z,99852.44
2023-03-12T23:53:48.482Z,99853.72
2023-03-12T23:56:20.787Z,99860.06
2023-03-12T23:58:49.460Z,99860.88
